Terminal Aerodrome Forecast
Issued by NWS

Home | Current Version | Previous Version | Text Only | Print | Product List | Glossary On
Versions: 1 2 3 4 5 6 7 8 9 10 11 12 13
227
FTPA31 PHFO 172342
TAFHKO
TAF
PHKO 172342Z 1800/1824 22009KT P6SM FEW040 BKN060
     FM180500 12007KT P6SM SCT060
     FM182100 22009KT P6SM FEW040 BKN060=

USA.gov is the U.S. government's official web portal to all federal, state and local government web resources and services.